sensor_id;sensor_type;location;lat;lon;timestamp;P1;durP1;ratioP1;P2;durP2;ratioP2
23718;SDS011;43322;52.230;5.702;2023-06-05T00:01:28;4.45;;;4.13;;
23718;SDS011;43322;52.230;5.702;2023-06-05T00:03:59;4.93;;;4.45;;
23718;SDS011;43322;52.230;5.702;2023-06-05T00:06:25;4.78;;;4.35;;
23718;SDS011;43322;52.230;5.702;2023-06-05T00:08:52;5.15;;;4.70;;
23718;SDS011;43322;52.230;5.702;2023-06-05T00:11:20;5.88;;;4.47;;
23718;SDS011;43322;52.230;5.702;2023-06-05T00:13:47;5.45;;;4.93;;
23718;SDS011;43322;52.230;5.702;2023-06-05T00:16:14;5.13;;;4.50;;
23718;SDS011;43322;52.230;5.702;2023-06-05T00:18:41;5.03;;;4.63;;
23718;SDS011;43322;52.230;5.702;2023-06-05T00:21:09;5.57;;;5.10;;
23718;SDS011;43322;52.230;5.702;2023-06-05T00:23:35;5.60;;;5.10;;
23718;SDS011;43322;52.230;5.702;2023-06-05T00:26:02;5.70;;;5.10;;
23718;SDS011;43322;52.230;5.702;2023-06-05T00:28:30;7.38;;;4.90;;
23718;SDS011;43322;52.230;5.702;2023-06-05T00:30:57;6.68;;;5.80;;
23718;SDS011;43322;52.230;5.702;2023-06-05T00:33:23;5.85;;;5.35;;
23718;SDS011;43322;52.230;5.702;2023-06-05T00:35:50;5.95;;;5.38;;
23718;SDS011;43322;52.230;5.702;2023-06-05T00:38:17;5.72;;;5.28;;
23718;SDS011;43322;52.230;5.702;2023-06-05T00:40:43;6.10;;;5.50;;
23718;SDS011;43322;52.230;5.702;2023-06-05T00:43:10;5.70;;;5.20;;
23718;SDS011;43322;52.230;5.702;2023-06-05T00:45:38;6.07;;;5.57;;
23718;SDS011;43322;52.230;5.702;2023-06-05T00:48:05;7.28;;;5.40;;
23718;SDS011;43322;52.230;5.702;2023-06-05T00:50:32;5.95;;;5.40;;
23718;SDS011;43322;52.230;5.702;2023-06-05T00:53:02;6.68;;;5.57;;
23718;SDS011;43322;52.230;5.702;2023-06-05T00:55:29;5.95;;;5.45;;
23718;SDS011;43322;52.230;5.702;2023-06-05T00:57:56;7.70;;;5.65;;
23718;SDS011;43322;52.230;5.702;2023-06-05T01:00:23;6.10;;;5.60;;
23718;SDS011;43322;52.230;5.702;2023-06-05T01:02:51;6.32;;;5.72;;
23718;SDS011;43322;52.230;5.702;2023-06-05T01:05:21;6.28;;;5.35;;
23718;SDS011;43322;52.230;5.702;2023-06-05T01:07:49;5.85;;;5.40;;
23718;SDS011;43322;52.230;5.702;2023-06-05T01:10:16;6.40;;;5.90;;
23718;SDS011;43322;52.230;5.702;2023-06-05T01:12:45;6.32;;;5.70;;
23718;SDS011;43322;52.230;5.702;2023-06-05T01:15:17;6.70;;;6.07;;
23718;SDS011;43322;52.230;5.702;2023-06-05T01:17:54;7.00;;;5.80;;
23718;SDS011;43322;52.230;5.702;2023-06-05T01:20:22;7.03;;;5.70;;
23718;SDS011;43322;52.230;5.702;2023-06-05T01:22:50;6.88;;;6.07;;
23718;SDS011;43322;52.230;5.702;2023-06-05T01:25:18;6.20;;;5.70;;
23718;SDS011;43322;52.230;5.702;2023-06-05T01:27:51;6.45;;;5.82;;
23718;SDS011;43322;52.230;5.702;2023-06-05T01:30:23;5.50;;;5.10;;
23718;SDS011;43322;52.230;5.702;2023-06-05T01:32:55;7.15;;;6.32;;
23718;SDS011;43322;52.230;5.702;2023-06-05T01:35:27;6.47;;;5.82;;
23718;SDS011;43322;52.230;5.702;2023-06-05T01:37:59;6.63;;;6.03;;
23718;SDS011;43322;52.230;5.702;2023-06-05T01:40:27;7.35;;;6.30;;
23718;SDS011;43322;52.230;5.702;2023-06-05T01:42:56;6.85;;;6.25;;
23718;SDS011;43322;52.230;5.702;2023-06-05T01:45:23;9.65;;;6.40;;
23718;SDS011;43322;52.230;5.702;2023-06-05T01:47:50;6.70;;;6.00;;
23718;SDS011;43322;52.230;5.702;2023-06-05T01:50:18;8.43;;;6.22;;
23718;SDS011;43322;52.230;5.702;2023-06-05T01:52:46;7.07;;;6.40;;
23718;SDS011;43322;52.230;5.702;2023-06-05T01:55:16;8.38;;;6.28;;
23718;SDS011;43322;52.230;5.702;2023-06-05T01:57:48;6.82;;;6.22;;
23718;SDS011;43322;52.230;5.702;2023-06-05T02:00:15;8.68;;;6.72;;
23718;SDS011;43322;52.230;5.702;2023-06-05T02:02:43;9.77;;;6.78;;
23718;SDS011;43322;52.230;5.702;2023-06-05T02:05:13;8.18;;;6.35;;
23718;SDS011;43322;52.230;5.702;2023-06-05T02:07:41;7.97;;;7.15;;
23718;SDS011;43322;52.230;5.702;2023-06-05T02:10:12;8.75;;;7.65;;
23718;SDS011;43322;52.230;5.702;2023-06-05T02:12:40;8.73;;;6.85;;
23718;SDS011;43322;52.230;5.702;2023-06-05T02:15:08;8.25;;;7.40;;
23718;SDS011;43322;52.230;5.702;2023-06-05T02:17:38;7.25;;;6.68;;
23718;SDS011;43322;52.230;5.702;2023-06-05T02:20:10;7.80;;;7.18;;
23718;SDS011;43322;52.230;5.702;2023-06-05T02:22:37;8.15;;;6.90;;
23718;SDS011;43322;52.230;5.702;2023-06-05T02:25:04;8.05;;;7.18;;
23718;SDS011;43322;52.230;5.702;2023-06-05T02:27:31;9.23;;;7.40;;
23718;SDS011;43322;52.230;5.702;2023-06-05T02:29:59;10.05;;;7.47;;
23718;SDS011;43322;52.230;5.702;2023-06-05T02:32:26;8.15;;;7.45;;
23718;SDS011;43322;52.230;5.702;2023-06-05T02:34:54;8.63;;;7.90;;
23718;SDS011;43322;52.230;5.702;2023-06-05T02:37:22;7.95;;;7.28;;
23718;SDS011;43322;52.230;5.702;2023-06-05T02:39:49;9.32;;;7.63;;
23718;SDS011;43322;52.230;5.702;2023-06-05T02:42:15;13.75;;;8.30;;
23718;SDS011;43322;52.230;5.702;2023-06-05T02:44:43;9.88;;;7.97;;
23718;SDS011;43322;52.230;5.702;2023-06-05T02:47:11;8.60;;;7.75;;
23718;SDS011;43322;52.230;5.702;2023-06-05T02:49:39;10.07;;;7.97;;
23718;SDS011;43322;52.230;5.702;2023-06-05T02:52:05;8.30;;;7.50;;
23718;SDS011;43322;52.230;5.702;2023-06-05T02:54:32;8.82;;;8.02;;
23718;SDS011;43322;52.230;5.702;2023-06-05T02:56:59;8.70;;;8.02;;
23718;SDS011;43322;52.230;5.702;2023-06-05T02:59:26;9.05;;;8.10;;
23718;SDS011;43322;52.230;5.702;2023-06-05T03:01:53;9.27;;;7.88;;
23718;SDS011;43322;52.230;5.702;2023-06-05T03:04:21;9.02;;;7.88;;
23718;SDS011;43322;52.230;5.702;2023-06-05T03:06:49;9.60;;;8.60;;
23718;SDS011;43322;52.230;5.702;2023-06-05T03:09:18;9.00;;;7.82;;
23718;SDS011;43322;52.230;5.702;2023-06-05T03:11:45;8.73;;;7.93;;
23718;SDS011;43322;52.230;5.702;2023-06-05T03:14:11;9.27;;;8.35;;
23718;SDS011;43322;52.230;5.702;2023-06-05T03:16:38;8.55;;;7.82;;
23718;SDS011;43322;52.230;5.702;2023-06-05T03:19:08;9.18;;;8.30;;
23718;SDS011;43322;52.230;5.702;2023-06-05T03:21:37;11.27;;;8.52;;
23718;SDS011;43322;52.230;5.702;2023-06-05T03:24:06;9.60;;;8.75;;
23718;SDS011;43322;52.230;5.702;2023-06-05T03:26:35;9.23;;;8.13;;
23718;SDS011;43322;52.230;5.702;2023-06-05T03:29:02;9.73;;;8.73;;
23718;SDS011;43322;52.230;5.702;2023-06-05T03:31:29;8.90;;;8.13;;
23718;SDS011;43322;52.230;5.702;2023-06-05T03:33:56;9.57;;;8.40;;
23718;SDS011;43322;52.230;5.702;2023-06-05T03:36:23;10.63;;;8.43;;
23718;SDS011;43322;52.230;5.702;2023-06-05T03:38:51;9.60;;;8.68;;
23718;SDS011;43322;52.230;5.702;2023-06-05T03:41:18;9.48;;;8.65;;
23718;SDS011;43322;52.230;5.702;2023-06-05T03:43:45;9.95;;;8.75;;
23718;SDS011;43322;52.230;5.702;2023-06-05T03:46:11;11.25;;;9.23;;
23718;SDS011;43322;52.230;5.702;2023-06-05T03:48:43;11.98;;;9.07;;
23718;SDS011;43322;52.230;5.702;2023-06-05T03:51:09;9.95;;;8.95;;
23718;SDS011;43322;52.230;5.702;2023-06-05T03:53:36;9.45;;;8.30;;
23718;SDS011;43322;52.230;5.702;2023-06-05T03:56:06;10.57;;;9.20;;
23718;SDS011;43322;52.230;5.702;2023-06-05T03:58:33;11.13;;;9.25;;
23718;SDS011;43322;52.230;5.702;2023-06-05T04:01:00;10.93;;;8.77;;
23718;SDS011;43322;52.230;5.702;2023-06-05T04:03:27;10.43;;;9.18;;
23718;SDS011;43322;52.230;5.702;2023-06-05T04:05:53;11.18;;;10.02;;
23718;SDS011;43322;52.230;5.702;2023-06-05T04:08:20;9.88;;;8.88;;
23718;SDS011;43322;52.230;5.702;2023-06-05T04:10:47;10.43;;;9.32;;
23718;SDS011;43322;52.230;5.702;2023-06-05T04:13:16;10.27;;;9.25;;
23718;SDS011;43322;52.230;5.702;2023-06-05T04:15:43;17.52;;;9.23;;
23718;SDS011;43322;52.230;5.702;2023-06-05T04:18:10;12.02;;;8.85;;
23718;SDS011;43322;52.230;5.702;2023-06-05T04:20:37;12.20;;;9.20;;
23718;SDS011;43322;52.230;5.702;2023-06-05T04:23:04;9.98;;;9.00;;
23718;SDS011;43322;52.230;5.702;2023-06-05T04:25:30;11.05;;;9.38;;
23718;SDS011;43322;52.230;5.702;2023-06-05T04:27:57;11.15;;;9.50;;
23718;SDS011;43322;52.230;5.702;2023-06-05T04:30:25;10.75;;;9.32;;
23718;SDS011;43322;52.230;5.702;2023-06-05T04:32:54;11.00;;;9.88;;
23718;SDS011;43322;52.230;5.702;2023-06-05T04:35:21;10.80;;;9.73;;
23718;SDS011;43322;52.230;5.702;2023-06-05T04:37:48;10.60;;;9.50;;
23718;SDS011;43322;52.230;5.702;2023-06-05T04:40:16;12.80;;;9.57;;
23718;SDS011;43322;52.230;5.702;2023-06-05T04:42:45;12.05;;;9.95;;
23718;SDS011;43322;52.230;5.702;2023-06-05T04:45:12;13.48;;;9.57;;
23718;SDS011;43322;52.230;5.702;2023-06-05T04:47:42;10.85;;;9.68;;
23718;SDS011;43322;52.230;5.702;2023-06-05T04:50:20;10.45;;;9.32;;
23718;SDS011;43322;52.230;5.702;2023-06-05T04:52:49;10.45;;;9.38;;
23718;SDS011;43322;52.230;5.702;2023-06-05T04:55:17;10.85;;;9.70;;
23718;SDS011;43322;52.230;5.702;2023-06-05T04:57:44;12.40;;;9.75;;
23718;SDS011;43322;52.230;5.702;2023-06-05T05:00:12;12.43;;;9.68;;
23718;SDS011;43322;52.230;5.702;2023-06-05T05:02:40;13.80;;;9.55;;
23718;SDS011;43322;52.230;5.702;2023-06-05T05:05:08;10.15;;;9.07;;
23718;SDS011;43322;52.230;5.702;2023-06-05T05:07:38;10.27;;;8.98;;
23718;SDS011;43322;52.230;5.702;2023-06-05T05:10:06;10.13;;;9.13;;
23718;SDS011;43322;52.230;5.702;2023-06-05T05:12:34;9.80;;;8.88;;
23718;SDS011;43322;52.230;5.702;2023-06-05T05:15:01;10.15;;;8.95;;
23718;SDS011;43322;52.230;5.702;2023-06-05T05:17:29;13.27;;;10.05;;
23718;SDS011;43322;52.230;5.702;2023-06-05T05:19:56;11.63;;;9.02;;
23718;SDS011;43322;52.230;5.702;2023-06-05T05:22:24;13.45;;;10.05;;
23718;SDS011;43322;52.230;5.702;2023-06-05T05:24:52;12.43;;;9.23;;
23718;SDS011;43322;52.230;5.702;2023-06-05T05:27:18;11.23;;;8.93;;
23718;SDS011;43322;52.230;5.702;2023-06-05T05:29:45;10.38;;;9.38;;
23718;SDS011;43322;52.230;5.702;2023-06-05T05:32:12;9.70;;;8.80;;
23718;SDS011;43322;52.230;5.702;2023-06-05T05:34:38;10.98;;;9.88;;
23718;SDS011;43322;52.230;5.702;2023-06-05T05:37:05;12.10;;;9.48;;
23718;SDS011;43322;52.230;5.702;2023-06-05T05:39:33;11.00;;;9.50;;
23718;SDS011;43322;52.230;5.702;2023-06-05T05:42:00;14.45;;;9.43;;
23718;SDS011;43322;52.230;5.702;2023-06-05T05:44:27;9.88;;;8.85;;
23718;SDS011;43322;52.230;5.702;2023-06-05T05:46:54;10.93;;;9.40;;
23718;SDS011;43322;52.230;5.702;2023-06-05T05:49:21;11.07;;;9.32;;
23718;SDS011;43322;52.230;5.702;2023-06-05T05:51:48;11.35;;;9.75;;
23718;SDS011;43322;52.230;5.702;2023-06-05T05:54:16;11.55;;;9.38;;
23718;SDS011;43322;52.230;5.702;2023-06-05T05:56:44;12.60;;;10.02;;
23718;SDS011;43322;52.230;5.702;2023-06-05T05:59:12;13.68;;;9.85;;
23718;SDS011;43322;52.230;5.702;2023-06-05T06:01:39;10.60;;;8.93;;
23718;SDS011;43322;52.230;5.702;2023-06-05T06:04:06;10.73;;;9.63;;
23718;SDS011;43322;52.230;5.702;2023-06-05T06:06:32;9.68;;;8.77;;
23718;SDS011;43322;52.230;5.702;2023-06-05T06:08:59;9.30;;;8.45;;
23718;SDS011;43322;52.230;5.702;2023-06-05T06:11:27;10.15;;;8.60;;
23718;SDS011;43322;52.230;5.702;2023-06-05T06:13:55;10.10;;;9.10;;
23718;SDS011;43322;52.230;5.702;2023-06-05T06:16:21;9.32;;;8.38;;
23718;SDS011;43322;52.230;5.702;2023-06-05T06:18:48;10.82;;;9.05;;
23718;SDS011;43322;52.230;5.702;2023-06-05T06:21:15;9.35;;;8.25;;
23718;SDS011;43322;52.230;5.702;2023-06-05T06:23:42;9.63;;;8.15;;
23718;SDS011;43322;52.230;5.702;2023-06-05T06:26:09;10.23;;;8.15;;
23718;SDS011;43322;52.230;5.702;2023-06-05T06:28:36;8.60;;;7.72;;
23718;SDS011;43322;52.230;5.702;2023-06-05T06:31:04;8.57;;;7.75;;
23718;SDS011;43322;52.230;5.702;2023-06-05T06:33:31;7.40;;;6.80;;
23718;SDS011;43322;52.230;5.702;2023-06-05T06:35:58;7.93;;;7.18;;
23718;SDS011;43322;52.230;5.702;2023-06-05T06:38:25;12.48;;;7.65;;
23718;SDS011;43322;52.230;5.702;2023-06-05T06:40:55;7.63;;;6.82;;
23718;SDS011;43322;52.230;5.702;2023-06-05T06:43:21;7.57;;;6.93;;
23718;SDS011;43322;52.230;5.702;2023-06-05T06:45:48;7.30;;;6.68;;
23718;SDS011;43322;52.230;5.702;2023-06-05T06:48:17;7.60;;;6.80;;
23718;SDS011;43322;52.230;5.702;2023-06-05T06:50:45;11.18;;;6.80;;
23718;SDS011;43322;52.230;5.702;2023-06-05T06:53:13;10.60;;;7.13;;
23718;SDS011;43322;52.230;5.702;2023-06-05T06:55:39;6.97;;;6.35;;
23718;SDS011;43322;52.230;5.702;2023-06-05T06:58:06;7.30;;;6.63;;
23718;SDS011;43322;52.230;5.702;2023-06-05T07:00:33;7.50;;;6.72;;
23718;SDS011;43322;52.230;5.702;2023-06-05T07:02:59;10.20;;;6.80;;
23718;SDS011;43322;52.230;5.702;2023-06-05T07:05:28;7.47;;;6.78;;
23718;SDS011;43322;52.230;5.702;2023-06-05T07:07:54;7.70;;;6.63;;
23718;SDS011;43322;52.230;5.702;2023-06-05T07:10:25;6.82;;;6.20;;
23718;SDS011;43322;52.230;5.702;2023-06-05T07:12:52;6.78;;;6.07;;
23718;SDS011;43322;52.230;5.702;2023-06-05T07:15:19;6.85;;;6.28;;
23718;SDS011;43322;52.230;5.702;2023-06-05T07:17:46;10.45;;;6.90;;
23718;SDS011;43322;52.230;5.702;2023-06-05T07:20:13;7.18;;;6.50;;
23718;SDS011;43322;52.230;5.702;2023-06-05T07:22:42;7.93;;;7.13;;
23718;SDS011;43322;52.230;5.702;2023-06-05T07:25:10;6.07;;;5.68;;
23718;SDS011;43322;52.230;5.702;2023-06-05T07:27:38;6.57;;;6.07;;
23718;SDS011;43322;52.230;5.702;2023-06-05T07:30:06;8.25;;;7.60;;
23718;SDS011;43322;52.230;5.702;2023-06-05T07:32:33;8.27;;;6.63;;
23718;SDS011;43322;52.230;5.702;2023-06-05T07:35:00;7.20;;;6.60;;
23718;SDS011;43322;52.230;5.702;2023-06-05T07:37:27;7.40;;;6.70;;
23718;SDS011;43322;52.230;5.702;2023-06-05T07:39:55;7.75;;;7.15;;
23718;SDS011;43322;52.230;5.702;2023-06-05T07:42:21;7.43;;;6.72;;
23718;SDS011;43322;52.230;5.702;2023-06-05T07:44:48;7.50;;;6.85;;
23718;SDS011;43322;52.230;5.702;2023-06-05T07:47:15;7.53;;;6.80;;
23718;SDS011;43322;52.230;5.702;2023-06-05T07:49:41;6.70;;;6.20;;
23718;SDS011;43322;52.230;5.702;2023-06-05T07:52:08;7.00;;;6.43;;
23718;SDS011;43322;52.230;5.702;2023-06-05T07:54:35;7.05;;;6.45;;
23718;SDS011;43322;52.230;5.702;2023-06-05T07:57:03;6.80;;;6.22;;
23718;SDS011;43322;52.230;5.702;2023-06-05T07:59:33;8.10;;;7.18;;
23718;SDS011;43322;52.230;5.702;2023-06-05T08:02:00;7.00;;;6.30;;
23718;SDS011;43322;52.230;5.702;2023-06-05T08:04:26;6.97;;;6.28;;
23718;SDS011;43322;52.230;5.702;2023-06-05T08:06:53;6.68;;;6.03;;
23718;SDS011;43322;52.230;5.702;2023-06-05T08:09:20;6.63;;;5.97;;
23718;SDS011;43322;52.230;5.702;2023-06-05T08:11:46;5.90;;;5.50;;
23718;SDS011;43322;52.230;5.702;2023-06-05T08:14:15;6.30;;;5.70;;
23718;SDS011;43322;52.230;5.702;2023-06-05T08:16:42;6.05;;;5.55;;
23718;SDS011;43322;52.230;5.702;2023-06-05T08:19:09;6.10;;;5.65;;
23718;SDS011;43322;52.230;5.702;2023-06-05T08:21:36;7.43;;;6.22;;
23718;SDS011;43322;52.230;5.702;2023-06-05T08:24:03;6.85;;;5.95;;
23718;SDS011;43322;52.230;5.702;2023-06-05T08:26:30;6.78;;;6.18;;
23718;SDS011;43322;52.230;5.702;2023-06-05T08:28:56;9.25;;;6.30;;
23718;SDS011;43322;52.230;5.702;2023-06-05T08:31:24;5.93;;;5.43;;
23718;SDS011;43322;52.230;5.702;2023-06-05T08:33:51;8.63;;;5.60;;
23718;SDS011;43322;52.230;5.702;2023-06-05T08:36:17;5.85;;;5.45;;
23718;SDS011;43322;52.230;5.702;2023-06-05T08:38:44;6.00;;;5.45;;
23718;SDS011;43322;52.230;5.702;2023-06-05T08:41:12;5.78;;;5.38;;
23718;SDS011;43322;52.230;5.702;2023-06-05T08:43:41;6.78;;;5.93;;
23718;SDS011;43322;52.230;5.702;2023-06-05T08:46:09;6.07;;;5.57;;
23718;SDS011;43322;52.230;5.702;2023-06-05T08:48:40;9.18;;;6.43;;
23718;SDS011;43322;52.230;5.702;2023-06-05T08:51:09;6.60;;;6.00;;
23718;SDS011;43322;52.230;5.702;2023-06-05T08:53:37;6.30;;;5.80;;
23718;SDS011;43322;52.230;5.702;2023-06-05T08:56:05;5.80;;;5.28;;
23718;SDS011;43322;52.230;5.702;2023-06-05T08:58:32;6.40;;;5.90;;
23718;SDS011;43322;52.230;5.702;2023-06-05T09:01:00;6.57;;;6.03;;
23718;SDS011;43322;52.230;5.702;2023-06-05T09:03:27;6.40;;;5.50;;
23718;SDS011;43322;52.230;5.702;2023-06-05T09:05:55;6.18;;;5.68;;
23718;SDS011;43322;52.230;5.702;2023-06-05T09:08:27;5.75;;;5.35;;
23718;SDS011;43322;52.230;5.702;2023-06-05T09:13:47;5.68;;;5.20;;
23718;SDS011;43322;52.230;5.702;2023-06-05T09:16:14;5.22;;;4.82;;
23718;SDS011;43322;52.230;5.702;2023-06-05T09:18:50;4.90;;;4.60;;
23718;SDS011;43322;52.230;5.702;2023-06-05T09:21:19;4.90;;;4.60;;
23718;SDS011;43322;52.230;5.702;2023-06-05T09:23:47;5.00;;;4.60;;
23718;SDS011;43322;52.230;5.702;2023-06-05T09:26:14;5.80;;;5.28;;
23718;SDS011;43322;52.230;5.702;2023-06-05T09:28:52;5.57;;;5.07;;
23718;SDS011;43322;52.230;5.702;2023-06-05T09:31:20;6.15;;;5.75;;
23718;SDS011;43322;52.230;5.702;2023-06-05T09:33:54;6.03;;;4.95;;
23718;SDS011;43322;52.230;5.702;2023-06-05T09:36:23;5.70;;;5.20;;
23718;SDS011;43322;52.230;5.702;2023-06-05T09:38:51;5.65;;;5.22;;
23718;SDS011;43322;52.230;5.702;2023-06-05T09:41:18;6.38;;;5.78;;
23718;SDS011;43322;52.230;5.702;2023-06-05T09:43:45;5.78;;;5.28;;
23718;SDS011;43322;52.230;5.702;2023-06-05T09:46:14;5.60;;;5.18;;
23718;SDS011;43322;52.230;5.702;2023-06-05T09:48:42;4.72;;;4.38;;
23718;SDS011;43322;52.230;5.702;2023-06-05T09:51:18;6.40;;;5.45;;
23718;SDS011;43322;52.230;5.702;2023-06-05T09:53:48;4.90;;;4.68;;
23718;SDS011;43322;52.230;5.702;2023-06-05T09:56:16;4.68;;;4.38;;
23718;SDS011;43322;52.230;5.702;2023-06-05T09:58:46;5.28;;;4.78;;
23718;SDS011;43322;52.230;5.702;2023-06-05T10:01:14;5.75;;;5.35;;
23718;SDS011;43322;52.230;5.702;2023-06-05T10:03:42;4.93;;;4.53;;
23718;SDS011;43322;52.230;5.702;2023-06-05T10:06:13;8.00;;;5.13;;
23718;SDS011;43322;52.230;5.702;2023-06-05T10:08:41;5.85;;;5.25;;
23718;SDS011;43322;52.230;5.702;2023-06-05T10:11:09;5.68;;;5.25;;
23718;SDS011;43322;52.230;5.702;2023-06-05T10:13:37;5.00;;;4.70;;
23718;SDS011;43322;52.230;5.702;2023-06-05T10:16:04;5.30;;;4.90;;
23718;SDS011;43322;52.230;5.702;2023-06-05T10:18:30;4.85;;;4.50;;
23718;SDS011;43322;52.230;5.702;2023-06-05T10:20:58;4.72;;;4.43;;
23718;SDS011;43322;52.230;5.702;2023-06-05T10:23:25;5.43;;;4.57;;
23718;SDS011;43322;52.230;5.702;2023-06-05T10:25:53;4.63;;;4.32;;
23718;SDS011;43322;52.230;5.702;2023-06-05T10:28:28;4.70;;;4.30;;
23718;SDS011;43322;52.230;5.702;2023-06-05T10:31:24;4.70;;;4.40;;
23718;SDS011;43322;52.230;5.702;2023-06-05T10:34:01;4.90;;;4.45;;
23718;SDS011;43322;52.230;5.702;2023-06-05T10:36:45;7.22;;;5.15;;
23718;SDS011;43322;52.230;5.702;2023-06-05T10:39:33;4.88;;;4.05;;
23718;SDS011;43322;52.230;5.702;2023-06-05T10:42:00;4.50;;;4.20;;
23718;SDS011;43322;52.230;5.702;2023-06-05T10:44:41;4.60;;;4.30;;
23718;SDS011;43322;52.230;5.702;2023-06-05T10:50:19;4.60;;;4.30;;
23718;SDS011;43322;52.230;5.702;2023-06-05T10:52:50;9.15;;;4.90;;
23718;SDS011;43322;52.230;5.702;2023-06-05T10:55:17;4.55;;;4.15;;
23718;SDS011;43322;52.230;5.702;2023-06-05T11:03:58;5.47;;;3.95;;
23718;SDS011;43322;52.230;5.702;2023-06-05T11:06:26;3.42;;;3.15;;
23718;SDS011;43322;52.230;5.702;2023-06-05T11:09:09;3.70;;;3.50;;
23718;SDS011;43322;52.230;5.702;2023-06-05T11:14:23;4.00;;;3.47;;
23718;SDS011;43322;52.230;5.702;2023-06-05T11:16:52;5.53;;;3.30;;
23718;SDS011;43322;52.230;5.702;2023-06-05T11:22:01;3.30;;;3.17;;
23718;SDS011;43322;52.230;5.702;2023-06-05T11:24:33;3.00;;;2.90;;
23718;SDS011;43322;52.230;5.702;2023-06-05T11:27:00;3.60;;;3.30;;
23718;SDS011;43322;52.230;5.702;2023-06-05T11:29:28;3.95;;;3.50;;
23718;SDS011;43322;52.230;5.702;2023-06-05T11:31:57;3.20;;;3.00;;
23718;SDS011;43322;52.230;5.702;2023-06-05T11:34:23;3.05;;;2.85;;
23718;SDS011;43322;52.230;5.702;2023-06-05T11:36:53;3.33;;;3.05;;
23718;SDS011;43322;52.230;5.702;2023-06-05T11:39:20;4.95;;;3.35;;
23718;SDS011;43322;52.230;5.702;2023-06-05T11:41:47;3.30;;;3.00;;
23718;SDS011;43322;52.230;5.702;2023-06-05T11:44:16;2.80;;;2.70;;
23718;SDS011;43322;52.230;5.702;2023-06-05T11:46:57;3.00;;;2.90;;
23718;SDS011;43322;52.230;5.702;2023-06-05T11:49:25;2.85;;;2.70;;
23718;SDS011;43322;52.230;5.702;2023-06-05T11:51:53;2.88;;;2.72;;
23718;SDS011;43322;52.230;5.702;2023-06-05T11:54:25;2.97;;;2.78;;
23718;SDS011;43322;52.230;5.702;2023-06-05T11:56:56;3.78;;;2.90;;
23718;SDS011;43322;52.230;5.702;2023-06-05T11:59:23;3.03;;;2.83;;
23718;SDS011;43322;52.230;5.702;2023-06-05T12:01:50;2.58;;;2.38;;
23718;SDS011;43322;52.230;5.702;2023-06-05T12:04:20;2.60;;;2.40;;
23718;SDS011;43322;52.230;5.702;2023-06-05T12:06:47;2.53;;;2.30;;
23718;SDS011;43322;52.230;5.702;2023-06-05T12:09:16;3.35;;;2.38;;
23718;SDS011;43322;52.230;5.702;2023-06-05T12:11:43;2.40;;;2.30;;
23718;SDS011;43322;52.230;5.702;2023-06-05T12:14:11;2.58;;;2.38;;
23718;SDS011;43322;52.230;5.702;2023-06-05T12:16:39;2.83;;;2.63;;
23718;SDS011;43322;52.230;5.702;2023-06-05T12:19:12;2.60;;;2.40;;
23718;SDS011;43322;52.230;5.702;2023-06-05T12:21:41;2.97;;;2.70;;
23718;SDS011;43322;52.230;5.702;2023-06-05T12:24:08;2.95;;;2.70;;
23718;SDS011;43322;52.230;5.702;2023-06-05T12:26:48;2.88;;;2.65;;
23718;SDS011;43322;52.230;5.702;2023-06-05T12:29:18;2.80;;;2.10;;
23718;SDS011;43322;52.230;5.702;2023-06-05T12:31:45;2.53;;;2.20;;
23718;SDS011;43322;52.230;5.702;2023-06-05T12:34:12;2.13;;;2.03;;
23718;SDS011;43322;52.230;5.702;2023-06-05T12:36:41;2.40;;;2.30;;
23718;SDS011;43322;52.230;5.702;2023-06-05T12:39:09;2.90;;;2.70;;
23718;SDS011;43322;52.230;5.702;2023-06-05T12:41:37;2.40;;;2.28;;
23718;SDS011;43322;52.230;5.702;2023-06-05T12:44:04;2.90;;;2.55;;
23718;SDS011;43322;52.230;5.702;2023-06-05T12:46:33;3.50;;;2.20;;
23718;SDS011;43322;52.230;5.702;2023-06-05T12:49:00;2.65;;;2.45;;
23718;SDS011;43322;52.230;5.702;2023-06-05T12:51:28;2.50;;;2.30;;
23718;SDS011;43322;52.230;5.702;2023-06-05T12:53:56;2.55;;;2.35;;
23718;SDS011;43322;52.230;5.702;2023-06-05T12:56:24;3.95;;;2.00;;
23718;SDS011;43322;52.230;5.702;2023-06-05T12:58:51;2.85;;;2.05;;
23718;SDS011;43322;52.230;5.702;2023-06-05T13:01:20;5.95;;;2.20;;
23718;SDS011;43322;52.230;5.702;2023-06-05T13:03:47;2.25;;;2.03;;
23718;SDS011;43322;52.230;5.702;2023-06-05T13:06:14;3.00;;;2.00;;
23718;SDS011;43322;52.230;5.702;2023-06-05T13:08:41;2.25;;;2.15;;
23718;SDS011;43322;52.230;5.702;2023-06-05T13:11:09;2.08;;;1.98;;
23718;SDS011;43322;52.230;5.702;2023-06-05T13:13:37;2.20;;;2.10;;
23718;SDS011;43322;52.230;5.702;2023-06-05T13:16:03;2.30;;;2.10;;
23718;SDS011;43322;52.230;5.702;2023-06-05T13:18:32;4.40;;;2.00;;
23718;SDS011;43322;52.230;5.702;2023-06-05T13:21:00;2.30;;;2.10;;
23718;SDS011;43322;52.230;5.702;2023-06-05T13:23:27;3.25;;;2.03;;
23718;SDS011;43322;52.230;5.702;2023-06-05T13:25:54;2.10;;;2.00;;
23718;SDS011;43322;52.230;5.702;2023-06-05T13:28:22;3.47;;;2.20;;
23718;SDS011;43322;52.230;5.702;2023-06-05T13:30:49;2.45;;;2.25;;
23718;SDS011;43322;52.230;5.702;2023-06-05T13:33:17;3.05;;;1.73;;
23718;SDS011;43322;52.230;5.702;2023-06-05T13:35:44;2.80;;;2.58;;
23718;SDS011;43322;52.230;5.702;2023-06-05T13:38:11;2.03;;;1.92;;
23718;SDS011;43322;52.230;5.702;2023-06-05T13:40:37;2.65;;;1.90;;
23718;SDS011;43322;52.230;5.702;2023-06-05T13:43:06;2.53;;;2.33;;
23718;SDS011;43322;52.230;5.702;2023-06-05T13:45:34;1.80;;;1.70;;
23718;SDS011;43322;52.230;5.702;2023-06-05T13:48:01;4.57;;;1.98;;
23718;SDS011;43322;52.230;5.702;2023-06-05T13:50:27;2.00;;;1.90;;
23718;SDS011;43322;52.230;5.702;2023-06-05T13:52:54;2.30;;;2.20;;
23718;SDS011;43322;52.230;5.702;2023-06-05T13:55:23;1.98;;;1.88;;
23718;SDS011;43322;52.230;5.702;2023-06-05T13:57:50;3.08;;;2.20;;
23718;SDS011;43322;52.230;5.702;2023-06-05T14:00:17;2.30;;;2.20;;
23718;SDS011;43322;52.230;5.702;2023-06-05T14:02:46;2.10;;;1.90;;
23718;SDS011;43322;52.230;5.702;2023-06-05T14:05:12;2.40;;;2.20;;
23718;SDS011;43322;52.230;5.702;2023-06-05T14:07:39;2.78;;;2.03;;
23718;SDS011;43322;52.230;5.702;2023-06-05T14:10:06;2.20;;;2.10;;
23718;SDS011;43322;52.230;5.702;2023-06-05T14:12:34;5.07;;;2.40;;
23718;SDS011;43322;52.230;5.702;2023-06-05T14:15:00;2.17;;;1.98;;
23718;SDS011;43322;52.230;5.702;2023-06-05T14:17:27;2.75;;;2.30;;
23718;SDS011;43322;52.230;5.702;2023-06-05T14:19:55;2.80;;;2.70;;
23718;SDS011;43322;52.230;5.702;2023-06-05T14:22:22;2.47;;;2.38;;
23718;SDS011;43322;52.230;5.702;2023-06-05T14:24:48;2.38;;;2.15;;
23718;SDS011;43322;52.230;5.702;2023-06-05T14:27:15;3.53;;;2.55;;
23718;SDS011;43322;52.230;5.702;2023-06-05T14:29:43;3.38;;;3.08;;
23718;SDS011;43322;52.230;5.702;2023-06-05T14:32:10;4.25;;;3.00;;
23718;SDS011;43322;52.230;5.702;2023-06-05T14:34:36;3.40;;;3.10;;
23718;SDS011;43322;52.230;5.702;2023-06-05T14:37:04;3.00;;;2.78;;
23718;SDS011;43322;52.230;5.702;2023-06-05T14:39:31;3.78;;;3.08;;
23718;SDS011;43322;52.230;5.702;2023-06-05T14:41:58;4.32;;;3.92;;
23718;SDS011;43322;52.230;5.702;2023-06-05T14:44:25;3.95;;;3.65;;
23718;SDS011;43322;52.230;5.702;2023-06-05T14:46:52;3.92;;;2.97;;
23718;SDS011;43322;52.230;5.702;2023-06-05T14:49:21;3.78;;;3.10;;
23718;SDS011;43322;52.230;5.702;2023-06-05T14:51:47;3.20;;;2.90;;
23718;SDS011;43322;52.230;5.702;2023-06-05T14:54:15;3.67;;;3.15;;
23718;SDS011;43322;52.230;5.702;2023-06-05T14:56:42;5.50;;;3.03;;
23718;SDS011;43322;52.230;5.702;2023-06-05T14:59:09;3.22;;;3.03;;
23718;SDS011;43322;52.230;5.702;2023-06-05T15:01:35;3.50;;;3.30;;
23718;SDS011;43322;52.230;5.702;2023-06-05T15:04:02;3.10;;;2.85;;
23718;SDS011;43322;52.230;5.702;2023-06-05T15:06:29;3.03;;;2.83;;
23718;SDS011;43322;52.230;5.702;2023-06-05T15:08:55;3.70;;;3.30;;